Time;durP1;ratioP1;P1;durP2;ratioP2;P2;SDS_P1;SDS_P2;PMS_P1;PMS_P2;Temp;Humidity;BMP_temperature;BMP_pressure;BME280_temperature;BME280_humidity;BME280_pressure;Samples;Min_cycle;Max_cycle;Signal;HPM_P1;HPM_P2
2024/02/07 00:09:36;;;;;;;;;;;6.00;99.90;;;;;;21199285;28;19916;-82
2024/02/07 00:19:36;;;;;;;;;;;5.50;99.90;;;;;;21184865;28;19912;-82
2024/02/07 00:29:37;;;;;;;;;;;5.30;99.90;;;;;;21193407;28;19923;-82
2024/02/07 00:39:37;;;;;;;;;;;5.00;99.90;;;;;;21185737;28;20024;-82
2024/02/07 00:49:38;;;;;;;;;;;4.50;99.90;;;;;;21177009;28;19919;-83
2024/02/07 00:59:39;;;;;;;;;;;4.50;99.90;;;;;;21180971;28;19972;-80
2024/02/07 01:09:39;;;;;;;;;;;4.40;99.90;;;;;;21163455;28;19927;-81
2024/02/07 01:19:40;;;;;;;;;;;4.50;99.90;;;;;;21154141;28;19912;-80
2024/02/07 01:29:41;;;;;;;;;;;4.00;99.90;;;;;;21160699;28;19915;-79
2024/02/07 01:39:42;;;;;;;;;;;4.00;99.90;;;;;;21149603;28;19990;-80
2024/02/07 01:49:48;;;;;;;;;;;4.40;99.90;;;;;;21168706;27;19936;-80
2024/02/07 01:59:49;;;;;;;;;;;4.20;99.90;;;;;;21169445;28;20374;-82
2024/02/07 02:09:50;;;;;;;;;;;3.90;99.90;;;;;;21155404;28;19943;-79
2024/02/07 02:19:51;;;;;;;;;;;3.90;99.90;;;;;;21163862;28;20010;-80
2024/02/07 02:29:58;;;;;;;;;;;4.00;99.90;;;;;;21155216;28;19985;-81
2024/02/07 02:40:00;;;;;;;;;;;4.20;99.90;;;;;;21146842;28;19919;-81
2024/02/07 02:50:01;;;;;;;;;;;4.30;99.90;;;;;;21160799;28;19931;-82
2024/02/07 03:00:06;;;;;;;;;;;4.10;99.90;;;;;;21159009;28;20003;-82
2024/02/07 03:10:07;;;;;;;;;;;4.00;99.90;;;;;;21144940;28;19916;-80
2024/02/07 03:20:11;;;;;;;;;;;3.90;99.90;;;;;;21152502;28;20488;-80
2024/02/07 03:30:21;;;;;;;;;;;4.00;99.90;;;;;;21155531;28;20378;-81
2024/02/07 03:40:22;;;;;;;;;;;3.90;99.90;;;;;;21160493;28;19912;-84
2024/02/07 03:50:25;;;;;;;;;;;3.80;99.90;;;;;;21163787;28;19920;-81
2024/02/07 04:00:25;;;;;;;;;;;3.90;99.90;;;;;;21137030;28;19919;-83
2024/02/07 04:10:26;;;;;;;;;;;3.90;99.90;;;;;;21171098;28;20003;-83
2024/02/07 05:22:21;;;;;;;;;;;3.50;99.90;;;;;;21159257;28;19920;-84
2024/02/07 05:32:23;;;;;;;;;;;3.50;99.90;;;;;;21163371;28;19916;-79
2024/02/07 05:42:24;;;;;;;;;;;3.50;99.90;;;;;;21155500;28;19944;-80
2024/02/07 05:52:26;;;;;;;;;;;3.60;99.90;;;;;;21163527;28;19916;-81
2024/02/07 06:02:27;;;;;;;;;;;3.80;99.90;;;;;;21161188;28;19912;-81
2024/02/07 06:12:28;;;;;;;;;;;3.80;99.90;;;;;;21166842;28;19919;-83
2024/02/07 06:22:28;;;;;;;;;;;3.70;99.90;;;;;;21158982;28;19993;-84
2024/02/07 06:32:29;;;;;;;;;;;3.70;99.90;;;;;;21169679;28;19916;-80
2024/02/07 06:42:30;;;;;;;;;;;3.80;99.90;;;;;;21182891;28;19912;-81
2024/02/07 06:52:30;;;;;;;;;;;3.90;99.90;;;;;;21228945;28;20387;-80
2024/02/07 07:02:31;;;;;;;;;;;4.00;99.90;;;;;;21152018;28;19912;-80
2024/02/07 07:12:32;;;;;;;;;;;4.10;99.90;;;;;;21145211;28;20322;-82
2024/02/07 07:22:32;;;;;;;;;;;4.00;99.90;;;;;;21140972;28;19912;-83
2024/02/07 07:32:33;;;;;;;;;;;4.10;99.90;;;;;;21153825;28;19946;-80
2024/02/07 07:42:34;;;;;;;;;;;4.10;99.90;;;;;;21157214;28;19912;-80
2024/02/07 07:52:34;;;;;;;;;;;4.20;99.90;;;;;;21186467;28;19946;-81
2024/02/07 08:02:35;;;;;;;;;;;4.40;99.90;;;;;;21190084;28;20347;-81
2024/02/07 08:12:35;;;;;;;;;;;4.50;99.90;;;;;;21189936;28;20394;-79
2024/02/07 08:22:36;;;;;;;;;;;4.50;99.90;;;;;;21196236;28;19912;-80
2024/02/07 08:32:37;;;;;;;;;;;4.90;99.90;;;;;;21211493;28;19916;-80
2024/02/07 08:42:37;;;;;;;;;;;5.60;99.90;;;;;;21204160;28;19919;-81
2024/02/07 08:52:41;;;;;;;;;;;5.60;99.90;;;;;;21192078;28;20310;-81
2024/02/07 09:02:42;;;;;;;;;;;5.40;99.90;;;;;;21203765;28;20431;-80
2024/02/07 09:12:42;;;;;;;;;;;5.50;99.90;;;;;;21192036;28;19916;-80
2024/02/07 09:22:43;;;;;;;;;;;5.70;99.90;;;;;;21180072;28;19919;-80
2024/02/07 09:32:45;;;;;;;;;;;5.80;99.90;;;;;;21163431;27;19937;-80
2024/02/07 09:42:46;;;;;;;;;;;6.00;99.90;;;;;;21187746;28;19920;-80
2024/02/07 09:52:47;;;;;;;;;;;6.60;99.90;;;;;;21187692;28;19924;-80
2024/02/07 10:02:49;;;;;;;;;;;6.80;99.90;;;;;;21196488;28;19912;-81
2024/02/07 10:12:54;;;;;;;;;;;6.60;99.90;;;;;;21195348;28;19958;-81
2024/02/07 10:22:54;;;;;;;;;;;6.70;99.90;;;;;;21199892;28;20383;-81
2024/02/07 10:32:55;;;;;;;;;;;6.80;99.90;;;;;;21203675;28;19926;-81
2024/02/07 10:42:58;;;;;;;;;;;6.90;99.90;;;;;;21199678;28;20155;-81
2024/02/07 10:52:59;;;;;;;;;;;7.20;99.90;;;;;;21199848;28;19923;-81
2024/02/07 11:03:00;;;;;;;;;;;7.20;99.90;;;;;;21191955;28;20414;-81
2024/02/07 11:13:01;;;;;;;;;;;7.20;99.90;;;;;;21200563;28;19927;-80
2024/02/07 11:23:04;;;;;;;;;;;7.10;99.90;;;;;;21167038;28;19912;-80
2024/02/07 11:33:05;;;;;;;;;;;7.40;99.90;;;;;;21170569;28;19975;-80
2024/02/07 11:43:10;;;;;;;;;;;7.80;99.90;;;;;;21136215;28;19919;-78
2024/02/07 11:53:17;;;;;;;;;;;8.00;99.90;;;;;;21133011;28;19920;-79
2024/02/07 12:03:18;;;;;;;;;;;8.10;99.90;;;;;;21154345;28;19926;-81
2024/02/07 12:13:19;;;;;;;;;;;8.10;99.90;;;;;;21170128;28;19915;-80
2024/02/07 12:23:20;;;;;;;;;;;8.00;99.90;;;;;;21175773;28;19919;-80
2024/02/07 12:33:22;;;;;;;;;;;8.10;99.90;;;;;;21156001;28;20059;-81
2024/02/07 12:43:24;;;;;;;;;;;8.10;99.90;;;;;;21165206;28;19912;-79
2024/02/07 12:53:24;;;;;;;;;;;8.00;99.90;;;;;;21148461;28;20345;-80
2024/02/07 13:03:25;;;;;;;;;;;8.10;99.90;;;;;;21162415;28;19965;-80
2024/02/07 13:13:25;;;;;;;;;;;8.10;99.90;;;;;;21151104;28;19923;-78
2024/02/07 13:23:32;;;;;;;;;;;8.40;99.90;;;;;;21148207;28;19911;-80
2024/02/07 13:33:33;;;;;;;;;;;8.70;99.90;;;;;;21152748;28;19967;-81
2024/02/07 13:43:34;;;;;;;;;;;9.20;99.90;;;;;;21143328;28;19934;-82
2024/02/07 13:53:35;;;;;;;;;;;9.80;99.90;;;;;;21155131;28;19920;-81
2024/02/07 14:03:35;;;;;;;;;;;10.20;99.90;;;;;;21162193;28;20390;-80
2024/02/07 14:13:36;;;;;;;;;;;10.40;99.90;;;;;;21146888;27;19961;-81
2024/02/07 14:23:37;;;;;;;;;;;10.60;99.90;;;;;;21151810;28;19916;-80
2024/02/07 14:33:38;;;;;;;;;;;10.60;99.90;;;;;;21158575;28;19922;-77
2024/02/07 14:43:39;;;;;;;;;;;10.40;99.90;;;;;;21199276;28;19947;-78
2024/02/07 14:53:39;;;;;;;;;;;10.60;99.90;;;;;;21165556;28;19919;-77
2024/02/07 15:03:40;;;;;;;;;;;10.90;99.90;;;;;;21158256;28;20364;-78
2024/02/07 15:13:40;;;;;;;;;;;11.00;99.90;;;;;;21160405;28;19968;-80
2024/02/07 15:23:41;;;;;;;;;;;10.90;99.90;;;;;;21151263;28;19922;-78
2024/02/07 15:33:42;;;;;;;;;;;10.80;99.90;;;;;;21174767;28;19916;-81
2024/02/07 15:43:42;;;;;;;;;;;10.80;99.90;;;;;;21164168;28;19947;-80
2024/02/07 15:53:43;;;;;;;;;;;10.70;99.90;;;;;;21136815;28;19920;-79
2024/02/07 16:03:44;;;;;;;;;;;10.60;99.90;;;;;;21152513;28;20331;-77
2024/02/07 16:13:45;;;;;;;;;;;10.60;99.90;;;;;;21159868;28;19916;-80
2024/02/07 16:23:46;;;;;;;;;;;10.50;99.90;;;;;;21170079;28;20371;-81
2024/02/07 16:33:46;;;;;;;;;;;10.40;99.90;;;;;;21167766;28;20092;-80
2024/02/07 16:43:47;;;;;;;;;;;10.40;99.90;;;;;;21178722;28;19926;-81
2024/02/07 16:53:48;;;;;;;;;;;10.40;99.90;;;;;;21159538;28;20275;-81
2024/02/07 17:03:49;;;;;;;;;;;10.40;99.90;;;;;;21171947;28;19912;-80
2024/02/07 17:13:49;;;;;;;;;;;10.20;99.90;;;;;;21175405;28;19916;-81
2024/02/07 17:23:50;;;;;;;;;;;10.30;99.90;;;;;;21169177;28;19911;-79
2024/02/07 17:33:50;;;;;;;;;;;10.30;99.90;;;;;;21149201;28;19983;-80
2024/02/07 17:43:51;;;;;;;;;;;10.20;99.90;;;;;;21162597;28;19922;-79
2024/02/07 17:53:52;;;;;;;;;;;10.10;99.90;;;;;;21162876;28;20302;-79
2024/02/07 18:03:52;;;;;;;;;;;10.10;99.90;;;;;;21153119;28;19919;-81
2024/02/07 18:13:53;;;;;;;;;;;10.10;99.90;;;;;;21188382;28;19915;-80
2024/02/07 18:23:54;;;;;;;;;;;10.00;99.90;;;;;;21156981;28;19998;-81
2024/02/07 18:33:55;;;;;;;;;;;9.40;99.90;;;;;;21184211;28;19916;-80
2024/02/07 18:43:55;;;;;;;;;;;9.00;99.90;;;;;;21187603;28;19919;-81
2024/02/07 18:53:56;;;;;;;;;;;8.90;99.90;;;;;;21181944;28;20401;-79
2024/02/07 19:03:57;;;;;;;;;;;8.70;99.90;;;;;;21170312;28;19916;-80
2024/02/07 19:14:00;;;;;;;;;;;8.50;99.90;;;;;;21138592;28;20499;-80
2024/02/07 19:24:01;;;;;;;;;;;8.20;99.90;;;;;;21138208;28;19912;-80
2024/02/07 19:34:01;;;;;;;;;;;8.10;99.90;;;;;;21140753;28;20415;-80
2024/02/07 19:44:02;;;;;;;;;;;8.00;99.90;;;;;;21156376;28;19958;-77
2024/02/07 19:54:03;;;;;;;;;;;8.00;99.90;;;;;;21153773;28;19946;-79
2024/02/07 20:04:03;;;;;;;;;;;8.00;99.90;;;;;;21173875;28;19919;-80
2024/02/07 20:14:04;;;;;;;;;;;8.00;99.90;;;;;;21172780;28;20409;-80
2024/02/07 20:24:05;;;;;;;;;;;7.90;99.90;;;;;;21162084;28;19947;-80
2024/02/07 20:34:06;;;;;;;;;;;7.90;99.90;;;;;;21191905;28;19979;-79
2024/02/07 20:44:07;;;;;;;;;;;7.80;99.90;;;;;;21219264;27;20003;-78
2024/02/07 20:54:08;;;;;;;;;;;7.90;99.90;;;;;;21232274;28;19922;-78
2024/02/07 21:04:09;;;;;;;;;;;7.80;99.90;;;;;;21229579;27;19912;-78
2024/02/07 21:14:09;;;;;;;;;;;7.70;99.90;;;;;;21208834;28;19916;-79
2024/02/07 21:24:10;;;;;;;;;;;7.60;99.90;;;;;;21235908;28;19951;-79
2024/02/07 21:34:11;;;;;;;;;;;7.40;99.90;;;;;;21242081;27;19930;-78
2024/02/07 21:44:11;;;;;;;;;;;7.30;99.90;;;;;;21231472;28;19912;-78
2024/02/07 21:54:12;;;;;;;;;;;7.30;99.90;;;;;;21233990;28;19926;-80
2024/02/07 22:04:13;;;;;;;;;;;7.20;99.90;;;;;;21237512;28;19900;-78
2024/02/07 22:14:13;;;;;;;;;;;7.10;99.90;;;;;;21254770;28;19995;-78
2024/02/07 22:24:14;;;;;;;;;;;7.00;99.90;;;;;;21247366;28;19947;-79
2024/02/07 22:34:16;;;;;;;;;;;7.00;99.90;;;;;;21226889;28;19937;-80
2024/02/07 22:44:16;;;;;;;;;;;7.00;99.90;;;;;;21233632;28;19942;-77
2024/02/07 22:54:17;;;;;;;;;;;7.00;99.90;;;;;;21237438;28;19943;-78
2024/02/07 23:04:18;;;;;;;;;;;6.90;99.90;;;;;;21202880;28;19922;-79
2024/02/07 23:14:18;;;;;;;;;;;7.00;99.90;;;;;;21191686;28;19916;-80
2024/02/07 23:24:19;;;;;;;;;;;6.90;99.90;;;;;;21191311;28;19912;-81
2024/02/07 23:34:20;;;;;;;;;;;7.10;99.90;;;;;;21193336;28;19916;-78
2024/02/07 23:44:20;;;;;;;;;;;7.00;99.90;;;;;;21188416;28;20002;-80
2024/02/07 23:54:21;;;;;;;;;;;7.10;99.90;;;;;;21188834;28;19923;-80
